sensor_id;sensor_type;location;lat;lon;timestamp;temperature;humidity
20648;DHT22;10483;44.646;10.924;2022-07-26T00:01:54;30.50;99.20
20648;DHT22;10483;44.646;10.924;2022-07-26T00:04:21;30.70;99.70
20648;DHT22;10483;44.646;10.924;2022-07-26T00:06:48;30.80;99.70
20648;DHT22;10483;44.646;10.924;2022-07-26T00:09:14;30.80;99.20
20648;DHT22;10483;44.646;10.924;2022-07-26T00:11:41;30.90;99.00
20648;DHT22;10483;44.646;10.924;2022-07-26T00:14:08;31.00;98.50
20648;DHT22;10483;44.646;10.924;2022-07-26T00:16:35;31.00;98.30
20648;DHT22;10483;44.646;10.924;2022-07-26T00:19:03;30.90;98.00
20648;DHT22;10483;44.646;10.924;2022-07-26T00:21:30;30.90;98.00
20648;DHT22;10483;44.646;10.924;2022-07-26T00:23:57;30.70;97.30
20648;DHT22;10483;44.646;10.924;2022-07-26T00:26:23;30.70;98.70
20648;DHT22;10483;44.646;10.924;2022-07-26T00:28:50;30.70;98.90
20648;DHT22;10483;44.646;10.924;2022-07-26T00:31:17;30.80;98.80
20648;DHT22;10483;44.646;10.924;2022-07-26T00:33:43;30.70;97.90
20648;DHT22;10483;44.646;10.924;2022-07-26T00:36:10;30.60;98.40
20648;DHT22;10483;44.646;10.924;2022-07-26T00:38:37;30.50;98.30
20648;DHT22;10483;44.646;10.924;2022-07-26T00:41:04;30.50;98.40
20648;DHT22;10483;44.646;10.924;2022-07-26T00:43:30;30.60;99.10
20648;DHT22;10483;44.646;10.924;2022-07-26T00:45:57;30.60;98.00
20648;DHT22;10483;44.646;10.924;2022-07-26T00:48:24;30.60;98.80
20648;DHT22;10483;44.646;10.924;2022-07-26T00:50:52;30.50;98.40
20648;DHT22;10483;44.646;10.924;2022-07-26T00:53:21;30.40;98.10
20648;DHT22;10483;44.646;10.924;2022-07-26T00:55:49;30.50;99.50
20648;DHT22;10483;44.646;10.924;2022-07-26T00:58:17;30.40;98.20
20648;DHT22;10483;44.646;10.924;2022-07-26T01:00:44;30.50;99.10
20648;DHT22;10483;44.646;10.924;2022-07-26T01:03:10;30.40;99.60
20648;DHT22;10483;44.646;10.924;2022-07-26T01:05:37;30.30;98.40
20648;DHT22;10483;44.646;10.924;2022-07-26T01:08:04;30.20;98.70
20648;DHT22;10483;44.646;10.924;2022-07-26T01:10:31;30.30;99.10
20648;DHT22;10483;44.646;10.924;2022-07-26T01:12:57;30.30;98.50
20648;DHT22;10483;44.646;10.924;2022-07-26T01:15:24;30.20;99.10
20648;DHT22;10483;44.646;10.924;2022-07-26T01:17:51;30.20;99.10
20648;DHT22;10483;44.646;10.924;2022-07-26T01:20:17;30.30;98.80
20648;DHT22;10483;44.646;10.924;2022-07-26T01:22:44;30.30;99.10
20648;DHT22;10483;44.646;10.924;2022-07-26T01:25:11;30.20;98.80
20648;DHT22;10483;44.646;10.924;2022-07-26T01:27:38;30.10;98.80
20648;DHT22;10483;44.646;10.924;2022-07-26T01:30:07;30.10;99.00
20648;DHT22;10483;44.646;10.924;2022-07-26T01:32:35;30.00;98.80
20648;DHT22;10483;44.646;10.924;2022-07-26T01:35:03;29.90;99.10
20648;DHT22;10483;44.646;10.924;2022-07-26T01:37:30;30.00;99.10
20648;DHT22;10483;44.646;10.924;2022-07-26T01:39:57;30.00;99.10
20648;DHT22;10483;44.646;10.924;2022-07-26T01:42:23;30.00;99.50
20648;DHT22;10483;44.646;10.924;2022-07-26T01:44:50;29.90;99.40
20648;DHT22;10483;44.646;10.924;2022-07-26T01:47:17;29.90;99.40
20648;DHT22;10483;44.646;10.924;2022-07-26T01:49:43;29.90;99.50
20648;DHT22;10483;44.646;10.924;2022-07-26T01:52:10;29.90;99.60
20648;DHT22;10483;44.646;10.924;2022-07-26T01:54:36;29.90;99.70
20648;DHT22;10483;44.646;10.924;2022-07-26T01:57:03;29.80;99.90
20648;DHT22;10483;44.646;10.924;2022-07-26T01:59:30;29.80;99.90
20648;DHT22;10483;44.646;10.924;2022-07-26T02:01:56;29.80;99.90
20648;DHT22;10483;44.646;10.924;2022-07-26T02:04:23;29.70;99.90
20648;DHT22;10483;44.646;10.924;2022-07-26T02:07:06;29.70;99.90
20648;DHT22;10483;44.646;10.924;2022-07-26T02:09:33;29.70;99.90
20648;DHT22;10483;44.646;10.924;2022-07-26T02:12:01;29.60;99.90
20648;DHT22;10483;44.646;10.924;2022-07-26T02:14:28;29.60;99.90
20648;DHT22;10483;44.646;10.924;2022-07-26T02:16:54;29.50;99.90
20648;DHT22;10483;44.646;10.924;2022-07-26T02:19:23;29.50;99.90
20648;DHT22;10483;44.646;10.924;2022-07-26T02:21:49;29.50;99.90
20648;DHT22;10483;44.646;10.924;2022-07-26T02:24:16;29.50;99.90
20648;DHT22;10483;44.646;10.924;2022-07-26T02:26:43;29.40;99.90
20648;DHT22;10483;44.646;10.924;2022-07-26T02:29:09;29.40;99.90
20648;DHT22;10483;44.646;10.924;2022-07-26T02:31:36;29.30;99.90
20648;DHT22;10483;44.646;10.924;2022-07-26T02:34:03;29.30;99.90
20648;DHT22;10483;44.646;10.924;2022-07-26T02:36:29;29.30;99.90
20648;DHT22;10483;44.646;10.924;2022-07-26T02:38:56;29.20;99.90
20648;DHT22;10483;44.646;10.924;2022-07-26T02:41:23;29.20;99.90
20648;DHT22;10483;44.646;10.924;2022-07-26T02:43:49;29.20;99.90
20648;DHT22;10483;44.646;10.924;2022-07-26T02:46:16;29.20;99.90
20648;DHT22;10483;44.646;10.924;2022-07-26T02:48:42;29.20;99.90
20648;DHT22;10483;44.646;10.924;2022-07-26T02:51:09;29.20;99.90
20648;DHT22;10483;44.646;10.924;2022-07-26T02:53:36;29.10;99.90
20648;DHT22;10483;44.646;10.924;2022-07-26T02:56:02;29.10;99.90
20648;DHT22;10483;44.646;10.924;2022-07-26T02:58:29;29.10;99.90
20648;DHT22;10483;44.646;10.924;2022-07-26T03:00:56;29.10;99.90
20648;DHT22;10483;44.646;10.924;2022-07-26T03:03:22;29.10;99.90
20648;DHT22;10483;44.646;10.924;2022-07-26T03:05:49;29.00;99.90
20648;DHT22;10483;44.646;10.924;2022-07-26T03:08:16;29.00;99.90
20648;DHT22;10483;44.646;10.924;2022-07-26T03:10:42;28.90;99.90
20648;DHT22;10483;44.646;10.924;2022-07-26T03:13:09;28.90;99.90
20648;DHT22;10483;44.646;10.924;2022-07-26T03:15:36;28.90;99.90
20648;DHT22;10483;44.646;10.924;2022-07-26T03:18:03;28.90;99.90
20648;DHT22;10483;44.646;10.924;2022-07-26T03:20:29;28.90;99.90
20648;DHT22;10483;44.646;10.924;2022-07-26T03:22:56;28.80;99.90
20648;DHT22;10483;44.646;10.924;2022-07-26T03:25:23;28.80;99.90
20648;DHT22;10483;44.646;10.924;2022-07-26T03:27:49;28.80;99.90
20648;DHT22;10483;44.646;10.924;2022-07-26T03:30:16;28.80;99.90
20648;DHT22;10483;44.646;10.924;2022-07-26T03:32:42;28.80;99.90
20648;DHT22;10483;44.646;10.924;2022-07-26T03:35:09;28.80;99.90
20648;DHT22;10483;44.646;10.924;2022-07-26T03:37:36;28.70;99.90
20648;DHT22;10483;44.646;10.924;2022-07-26T03:40:03;28.70;99.90
20648;DHT22;10483;44.646;10.924;2022-07-26T03:42:29;28.70;99.90
20648;DHT22;10483;44.646;10.924;2022-07-26T03:44:56;28.60;99.90
20648;DHT22;10483;44.646;10.924;2022-07-26T03:47:22;28.60;99.90
20648;DHT22;10483;44.646;10.924;2022-07-26T03:49:49;28.60;99.90
20648;DHT22;10483;44.646;10.924;2022-07-26T03:52:16;28.60;99.90
20648;DHT22;10483;44.646;10.924;2022-07-26T03:54:42;28.60;99.90
20648;DHT22;10483;44.646;10.924;2022-07-26T03:57:09;28.60;99.90
20648;DHT22;10483;44.646;10.924;2022-07-26T03:59:36;28.60;99.90
20648;DHT22;10483;44.646;10.924;2022-07-26T04:02:02;28.60;99.90
20648;DHT22;10483;44.646;10.924;2022-07-26T04:04:29;28.60;99.90
20648;DHT22;10483;44.646;10.924;2022-07-26T04:06:56;28.60;99.90
20648;DHT22;10483;44.646;10.924;2022-07-26T04:09:22;28.60;99.90
20648;DHT22;10483;44.646;10.924;2022-07-26T04:11:49;28.60;99.90
20648;DHT22;10483;44.646;10.924;2022-07-26T04:14:15;28.60;99.90
20648;DHT22;10483;44.646;10.924;2022-07-26T04:16:42;28.50;99.90
20648;DHT22;10483;44.646;10.924;2022-07-26T04:19:09;28.50;99.90
20648;DHT22;10483;44.646;10.924;2022-07-26T04:21:35;28.50;99.90
20648;DHT22;10483;44.646;10.924;2022-07-26T04:24:02;28.50;99.90
20648;DHT22;10483;44.646;10.924;2022-07-26T04:26:29;28.50;99.90
20648;DHT22;10483;44.646;10.924;2022-07-26T04:28:55;28.50;99.90
20648;DHT22;10483;44.646;10.924;2022-07-26T04:31:22;28.50;99.90
20648;DHT22;10483;44.646;10.924;2022-07-26T04:33:49;28.50;99.90
20648;DHT22;10483;44.646;10.924;2022-07-26T04:36:17;28.50;99.90
20648;DHT22;10483;44.646;10.924;2022-07-26T04:38:43;28.60;99.90
20648;DHT22;10483;44.646;10.924;2022-07-26T04:41:10;28.60;99.90
20648;DHT22;10483;44.646;10.924;2022-07-26T04:43:37;28.60;99.90
20648;DHT22;10483;44.646;10.924;2022-07-26T04:46:03;28.60;99.90
20648;DHT22;10483;44.646;10.924;2022-07-26T04:48:30;28.60;99.90
20648;DHT22;10483;44.646;10.924;2022-07-26T04:50:57;28.60;99.90
20648;DHT22;10483;44.646;10.924;2022-07-26T04:53:23;28.60;99.90
20648;DHT22;10483;44.646;10.924;2022-07-26T04:55:50;28.60;99.90
20648;DHT22;10483;44.646;10.924;2022-07-26T04:58:16;28.60;99.90
20648;DHT22;10483;44.646;10.924;2022-07-26T05:00:43;28.60;99.90
20648;DHT22;10483;44.646;10.924;2022-07-26T05:03:10;28.60;99.90
20648;DHT22;10483;44.646;10.924;2022-07-26T05:05:36;28.60;99.90
20648;DHT22;10483;44.646;10.924;2022-07-26T05:08:03;28.60;99.90
20648;DHT22;10483;44.646;10.924;2022-07-26T05:10:32;28.60;99.90
20648;DHT22;10483;44.646;10.924;2022-07-26T05:13:01;28.60;99.90
20648;DHT22;10483;44.646;10.924;2022-07-26T05:15:30;28.70;99.90
20648;DHT22;10483;44.646;10.924;2022-07-26T05:18:00;28.60;99.90
20648;DHT22;10483;44.646;10.924;2022-07-26T05:20:27;28.60;99.90
20648;DHT22;10483;44.646;10.924;2022-07-26T05:22:54;28.60;99.90
20648;DHT22;10483;44.646;10.924;2022-07-26T05:25:21;28.60;99.90
20648;DHT22;10483;44.646;10.924;2022-07-26T05:27:47;28.60;99.90
20648;DHT22;10483;44.646;10.924;2022-07-26T05:30:14;28.60;99.90
20648;DHT22;10483;44.646;10.924;2022-07-26T05:32:41;28.60;99.90
20648;DHT22;10483;44.646;10.924;2022-07-26T05:35:07;28.60;99.90
20648;DHT22;10483;44.646;10.924;2022-07-26T05:37:34;28.60;99.90
20648;DHT22;10483;44.646;10.924;2022-07-26T05:40:03;28.60;99.90
20648;DHT22;10483;44.646;10.924;2022-07-26T05:42:30;28.60;99.90
20648;DHT22;10483;44.646;10.924;2022-07-26T05:44:57;28.60;99.90
20648;DHT22;10483;44.646;10.924;2022-07-26T05:47:24;28.60;99.90
20648;DHT22;10483;44.646;10.924;2022-07-26T05:49:50;28.60;99.90
20648;DHT22;10483;44.646;10.924;2022-07-26T05:52:17;28.60;99.90
